createdAt,value
2018-05-27T00:00:04.868Z,6.83
2018-05-27T00:02:32.439Z,6.70
2018-05-27T00:05:00.004Z,6.60
2018-05-27T00:07:27.626Z,6.90
2018-05-27T00:09:55.157Z,6.73
2018-05-27T00:12:22.755Z,7.90
2018-05-27T00:14:50.293Z,8.57
2018-05-27T00:17:17.855Z,7.07
2018-05-27T00:19:45.469Z,6.93
2018-05-27T00:22:13.045Z,7.43
2018-05-27T00:24:40.604Z,6.83
2018-05-27T00:27:08.133Z,5.90
2018-05-27T00:29:35.695Z,5.07
2018-05-27T00:32:03.312Z,5.50
2018-05-27T00:34:30.894Z,6.07
2018-05-27T00:36:59.238Z,6.80
2018-05-27T00:39:26.763Z,6.60
2018-05-27T00:41:54.336Z,6.20
2018-05-27T00:44:21.871Z,5.97
2018-05-27T00:46:49.453Z,5.57
2018-05-27T00:49:16.984Z,5.67
2018-05-27T00:51:44.562Z,6.30
2018-05-27T00:54:12.102Z,5.93
2018-05-27T00:56:40.426Z,5.80
2018-05-27T00:59:07.951Z,5.87
2018-05-27T01:01:35.538Z,6.20
2018-05-27T01:04:03.118Z,6.30
2018-05-27T01:06:30.681Z,6.23
2018-05-27T01:08:58.209Z,6.00
2018-05-27T01:11:25.774Z,6.20
2018-05-27T01:13:53.349Z,6.00
2018-05-27T01:16:20.872Z,6.53
2018-05-27T01:18:48.447Z,6.20
2018-05-27T01:21:15.978Z,6.40
2018-05-27T01:23:43.613Z,6.10
2018-05-27T01:26:11.214Z,6.13
2018-05-27T01:28:39.557Z,6.07
2018-05-27T01:31:07.124Z,7.43
2018-05-27T01:33:35.428Z,6.50
2018-05-27T01:36:02.956Z,6.30
2018-05-27T01:38:30.523Z,6.23
2018-05-27T01:40:58.064Z,7.00
2018-05-27T01:43:25.632Z,6.87
2018-05-27T01:45:53.253Z,7.70
2018-05-27T01:48:20.814Z,7.30
2018-05-27T01:50:48.384Z,7.67
2018-05-27T01:53:15.945Z,7.57
2018-05-27T01:55:43.511Z,7.20
2018-05-27T01:58:11.048Z,7.60
2018-05-27T02:00:38.627Z,7.53
2018-05-27T02:03:06.167Z,6.27
2018-05-27T02:05:33.780Z,6.00
2018-05-27T02:08:01.353Z,6.43
2018-05-27T02:10:29.691Z,6.57
2018-05-27T02:12:57.226Z,5.87
2018-05-27T02:15:24.826Z,6.60
2018-05-27T02:17:52.410Z,6.73
2018-05-27T02:20:20.787Z,6.03
2018-05-27T02:22:49.107Z,6.73
2018-05-27T02:25:16.628Z,6.13
2018-05-27T02:27:44.977Z,6.47
2018-05-27T02:30:12.564Z,6.73
2018-05-27T02:32:40.127Z,7.37
2018-05-27T02:35:07.721Z,6.37
2018-05-27T02:37:35.279Z,6.93
2018-05-27T02:40:02.845Z,6.57
2018-05-27T02:42:30.420Z,6.80
2018-05-27T02:44:58.986Z,5.80
2018-05-27T02:47:26.566Z,6.30
2018-05-27T02:49:54.121Z,5.77
2018-05-27T02:52:21.676Z,6.20
2018-05-27T02:54:49.321Z,6.43
2018-05-27T02:57:17.626Z,6.10
2018-05-27T02:59:45.295Z,6.47
2018-05-27T03:02:13.653Z,5.83
2018-05-27T03:04:41.253Z,6.03
2018-05-27T03:07:08.828Z,6.83
2018-05-27T03:09:36.348Z,7.00
2018-05-27T03:12:03.966Z,6.73
2018-05-27T03:14:31.519Z,6.87
2018-05-27T03:16:59.125Z,7.70
2018-05-27T03:19:28.321Z,6.70
2018-05-27T03:21:55.858Z,7.37
2018-05-27T03:24:23.492Z,7.53
2018-05-27T03:26:51.052Z,7.70
2018-05-27T03:29:18.697Z,7.23
2018-05-27T03:31:46.232Z,7.43
2018-05-27T03:34:13.792Z,7.10
2018-05-27T03:36:41.327Z,6.70
2018-05-27T03:39:08.905Z,7.20
2018-05-27T03:41:36.427Z,7.00
2018-05-27T03:44:04.031Z,7.13
2018-05-27T03:46:31.564Z,6.97
2018-05-27T03:48:59.128Z,6.50
2018-05-27T03:51:26.703Z,6.00
2018-05-27T03:53:54.242Z,6.40
2018-05-27T03:56:21.825Z,5.80
2018-05-27T03:58:49.368Z,7.13
2018-05-27T04:01:16.935Z,6.17
2018-05-27T04:03:50.292Z,6.83
2018-05-27T04:09:22.773Z,6.47
2018-05-27T04:11:50.339Z,7.10
2018-05-27T04:14:17.879Z,7.37
2018-05-27T04:16:45.408Z,6.53
2018-05-27T04:19:12.976Z,7.20
2018-05-27T04:21:40.515Z,6.87
2018-05-27T04:24:08.114Z,5.93
2018-05-27T04:26:35.646Z,5.70
2018-05-27T04:29:03.235Z,6.00
2018-05-27T04:31:30.776Z,6.17
2018-05-27T04:33:58.337Z,6.30
2018-05-27T04:36:25.916Z,7.17
2018-05-27T04:38:53.480Z,6.53
2018-05-27T04:41:21.052Z,6.00
2018-05-27T04:43:48.615Z,6.20
2018-05-27T04:46:16.905Z,6.47
2018-05-27T04:48:44.538Z,6.80
2018-05-27T04:51:12.867Z,6.47
2018-05-27T04:53:40.442Z,6.93
2018-05-27T04:56:08.020Z,6.33
2018-05-27T04:58:35.557Z,7.73
2018-05-27T05:01:03.129Z,7.00
2018-05-27T05:03:30.698Z,7.77
2018-05-27T05:05:58.258Z,7.27
2018-05-27T05:08:25.799Z,6.50
2018-05-27T05:10:53.364Z,6.80
2018-05-27T05:13:20.941Z,6.90
2018-05-27T05:15:48.533Z,6.73
2018-05-27T05:18:16.128Z,7.00
2018-05-27T05:20:43.729Z,6.13
2018-05-27T05:23:11.940Z,7.37
2018-05-27T05:25:39.496Z,6.60
2018-05-27T05:28:07.131Z,6.73
2018-05-27T05:30:34.664Z,6.63
2018-05-27T05:33:02.246Z,6.63
2018-05-27T05:35:29.787Z,6.73
2018-05-27T05:37:57.393Z,7.53
2018-05-27T05:40:24.936Z,6.60
2018-05-27T05:42:52.546Z,6.90
2018-05-27T05:45:20.192Z,7.33
2018-05-27T05:47:47.762Z,7.77
2018-05-27T05:50:15.321Z,6.47
2018-05-27T05:52:42.858Z,7.27
2018-05-27T05:55:10.440Z,7.33
2018-05-27T05:57:37.977Z,7.37
2018-05-27T06:00:05.543Z,6.97
2018-05-27T06:02:33.838Z,7.07
2018-05-27T06:05:01.731Z,6.77
2018-05-27T06:07:29.297Z,7.53
2018-05-27T06:09:56.825Z,7.20
2018-05-27T06:12:24.392Z,7.50
2018-05-27T06:14:51.927Z,6.87
2018-05-27T06:17:19.503Z,7.00
2018-05-27T06:19:47.138Z,6.07
2018-05-27T06:22:15.476Z,6.70
2018-05-27T06:24:43.028Z,6.77
2018-05-27T06:27:10.602Z,6.80
2018-05-27T06:29:38.210Z,6.57
2018-05-27T06:32:05.808Z,7.27
2018-05-27T06:34:33.360Z,6.73
2018-05-27T06:37:00.907Z,6.80
2018-05-27T06:39:28.435Z,6.53
2018-05-27T06:41:56.758Z,6.60
2018-05-27T06:44:24.344Z,6.57
2018-05-27T06:46:51.980Z,7.37
2018-05-27T06:49:19.615Z,6.93
2018-05-27T06:51:47.160Z,7.27
2018-05-27T06:54:14.747Z,7.10
2018-05-27T06:56:42.313Z,7.23
2018-05-27T06:59:09.905Z,7.37
2018-05-27T07:01:37.444Z,7.27
2018-05-27T07:04:04.960Z,7.63
2018-05-27T07:06:33.306Z,7.23
2018-05-27T07:09:00.879Z,7.17
2018-05-27T07:11:29.218Z,8.83
2018-05-27T07:13:56.784Z,7.67
2018-05-27T07:19:07.068Z,8.27
2018-05-27T07:21:34.966Z,8.37
2018-05-27T07:24:02.563Z,7.03
2018-05-27T07:26:30.131Z,7.80
2018-05-27T07:28:57.694Z,7.07
2018-05-27T07:31:25.260Z,7.37
2018-05-27T07:33:52.825Z,8.00
2018-05-27T07:36:20.426Z,7.30
2018-05-27T07:38:48.929Z,8.10
2018-05-27T07:41:16.877Z,8.23
2018-05-27T07:43:45.260Z,7.33
2018-05-27T07:46:13.576Z,8.20
2018-05-27T07:48:41.147Z,8.47
2018-05-27T07:51:08.710Z,7.67
2018-05-27T07:53:36.257Z,6.93
2018-05-27T07:56:03.828Z,7.50
2018-05-27T07:58:31.467Z,7.43
2018-05-27T08:00:59.012Z,7.30
2018-05-27T08:03:26.591Z,7.10
2018-05-27T08:05:54.116Z,7.57
2018-05-27T08:08:21.718Z,7.20
2018-05-27T08:10:49.388Z,7.00
2018-05-27T08:13:16.923Z,7.43
2018-05-27T08:15:44.518Z,7.07
2018-05-27T08:18:12.079Z,6.87
2018-05-27T09:36:36.693Z,6.07
2018-05-27T09:39:04.735Z,6.93
2018-05-27T09:41:32.399Z,7.23
2018-05-27T09:43:59.987Z,6.30
2018-05-27T09:46:27.554Z,6.67
2018-05-27T09:48:55.077Z,7.03
2018-05-27T09:51:22.677Z,6.40
2018-05-27T09:53:50.216Z,6.47
2018-05-27T09:56:17.788Z,6.80
2018-05-27T09:58:45.402Z,6.53
2018-05-27T10:01:12.959Z,6.43
2018-05-27T10:03:40.522Z,6.20
2018-05-27T10:06:08.083Z,6.47
2018-05-27T10:08:35.644Z,5.73
2018-05-27T10:11:03.176Z,5.27
2018-05-27T10:13:31.568Z,5.50
2018-05-27T10:15:59.894Z,5.40
2018-05-27T10:18:27.508Z,6.03
2018-05-27T10:20:55.102Z,5.67
2018-05-27T10:23:22.676Z,6.00
2018-05-27T10:25:50.267Z,5.40
2018-05-27T10:28:17.828Z,5.23
2018-05-27T10:30:46.178Z,5.80
2018-05-27T10:33:13.733Z,5.43
2018-05-27T10:35:41.300Z,5.50
2018-05-27T10:38:08.903Z,5.57
2018-05-27T10:40:37.234Z,4.93
2018-05-27T10:43:04.879Z,3.53
2018-05-27T10:45:32.434Z,4.10
2018-05-27T10:48:00.040Z,3.83
2018-05-27T10:50:27.837Z,4.03
2018-05-27T10:52:55.385Z,4.10
2018-05-27T10:55:23.083Z,3.40
2018-05-27T10:57:50.697Z,3.50
2018-05-27T11:00:19.040Z,4.10
2018-05-27T11:02:46.632Z,3.70
2018-05-27T11:05:14.161Z,4.10
2018-05-27T11:07:41.750Z,4.07
2018-05-27T11:10:09.364Z,3.57
2018-05-27T11:12:36.924Z,3.27
2018-05-27T11:15:04.482Z,4.20
2018-05-27T11:17:32.057Z,4.40
2018-05-27T11:19:59.652Z,4.10
2018-05-27T11:22:27.179Z,4.03
2018-05-27T11:24:54.776Z,4.40
2018-05-27T11:27:22.331Z,3.93
2018-05-27T11:29:49.857Z,3.40
2018-05-27T11:32:17.439Z,4.17
2018-05-27T11:34:44.976Z,3.43
2018-05-27T11:37:12.504Z,3.47
2018-05-27T11:39:40.075Z,4.03
2018-05-27T11:42:07.657Z,3.83
2018-05-27T11:44:36.228Z,4.10
2018-05-27T11:47:03.771Z,3.80
2018-05-27T11:49:31.381Z,3.90
2018-05-27T11:51:59.012Z,3.33
2018-05-27T11:54:26.579Z,4.03
2018-05-27T11:56:54.127Z,3.93
2018-05-27T11:59:21.688Z,3.63
2018-05-27T12:01:49.301Z,3.80
2018-05-27T12:04:16.931Z,3.10
2018-05-27T12:06:44.483Z,3.60
2018-05-27T12:09:12.594Z,3.53
2018-05-27T12:11:40.868Z,3.43
2018-05-27T12:14:08.439Z,3.83
2018-05-27T12:16:36.269Z,3.23
2018-05-27T12:19:03.985Z,3.20
2018-05-27T12:21:31.624Z,3.60
2018-05-27T12:24:00.322Z,3.43
2018-05-27T12:26:28.657Z,3.20
2018-05-27T12:28:57.021Z,3.07
2018-05-27T12:31:24.600Z,3.47
2018-05-27T12:33:52.193Z,3.30
2018-05-27T12:36:19.825Z,3.63
2018-05-27T12:38:47.439Z,3.00
2018-05-27T12:41:15.078Z,3.57
2018-05-27T12:43:42.733Z,3.43
2018-05-27T12:46:11.076Z,3.60
2018-05-27T12:48:38.666Z,3.43
2018-05-27T12:51:06.355Z,3.43
2018-05-27T12:53:33.940Z,3.50
2018-05-27T12:56:01.553Z,3.80
2018-05-27T12:58:29.915Z,3.40
2018-05-27T13:00:57.490Z,3.70
2018-05-27T13:03:25.104Z,3.40
2018-05-27T13:05:52.666Z,3.83
2018-05-27T13:08:20.239Z,3.67
2018-05-27T13:10:47.864Z,3.40
2018-05-27T13:13:15.442Z,4.10
2018-05-27T13:15:42.979Z,3.83
2018-05-27T13:18:10.573Z,4.10
2018-05-27T13:20:38.138Z,4.00
2018-05-27T13:23:05.716Z,3.50
2018-05-27T13:25:33.298Z,3.50
2018-05-27T13:28:00.881Z,3.47
2018-05-27T13:30:28.470Z,3.60
2018-05-27T13:32:56.032Z,3.67
2018-05-27T13:35:23.658Z,3.80
2018-05-27T13:37:52.002Z,3.97
2018-05-27T13:40:19.646Z,3.73
2018-05-27T13:42:48.105Z,4.07
2018-05-27T13:45:15.925Z,3.60
2018-05-27T13:47:44.375Z,3.97
2018-05-27T13:50:11.924Z,4.27
2018-05-27T13:52:39.502Z,3.70
2018-05-27T13:55:07.091Z,3.70
2018-05-27T13:57:34.654Z,3.77
2018-05-27T14:00:02.984Z,3.83
2018-05-27T14:02:31.340Z,3.93
2018-05-27T14:04:58.928Z,3.63
2018-05-27T14:07:26.492Z,3.60
2018-05-27T14:09:54.086Z,3.67
2018-05-27T14:12:21.653Z,3.70
2018-05-27T14:14:49.946Z,3.83
2018-05-27T14:17:17.610Z,3.50
2018-05-27T14:19:45.208Z,3.57
2018-05-27T14:22:12.761Z,3.90
2018-05-27T14:24:40.294Z,3.40
2018-05-27T14:27:07.855Z,3.37
2018-05-27T14:29:35.416Z,3.80
2018-05-27T14:32:03.725Z,4.80
2018-05-27T14:34:31.296Z,3.87
2018-05-27T14:36:58.829Z,3.60
2018-05-27T14:39:26.406Z,4.07
2018-05-27T14:41:53.986Z,3.93
2018-05-27T14:44:21.589Z,3.70
2018-05-27T14:46:49.131Z,3.80
2018-05-27T14:49:17.465Z,4.70
2018-05-27T14:51:45.017Z,3.80
2018-05-27T14:54:12.596Z,3.60
2018-05-27T14:56:40.245Z,3.63
2018-05-27T14:59:07.869Z,4.10
2018-05-27T15:01:35.495Z,3.70
2018-05-27T15:04:03.109Z,4.03
2018-05-27T15:06:30.653Z,4.00
2018-05-27T15:08:58.227Z,3.90
2018-05-27T15:11:25.770Z,4.00
2018-05-27T15:13:53.377Z,3.50
2018-05-27T15:16:20.907Z,3.43
2018-05-27T15:18:48.455Z,4.13
2018-05-27T15:21:16.026Z,4.70
2018-05-27T15:23:43.624Z,4.90
2018-05-27T15:26:11.248Z,4.87
2018-05-27T15:28:38.788Z,4.23
2018-05-27T15:31:06.411Z,4.70
2018-05-27T15:33:34.038Z,4.90
2018-05-27T15:36:01.648Z,4.70
2018-05-27T15:38:29.946Z,4.20
2018-05-27T15:40:57.528Z,4.63
2018-05-27T15:43:25.132Z,4.37
2018-05-27T15:45:52.700Z,4.57
2018-05-27T15:48:20.269Z,4.90
2018-05-27T15:50:47.937Z,4.30
2018-05-27T15:53:16.334Z,4.67
2018-05-27T15:55:43.917Z,4.20
2018-05-27T15:58:11.576Z,4.13
2018-05-27T16:00:39.114Z,4.17
2018-05-27T16:03:06.667Z,4.00
2018-05-27T16:05:34.340Z,3.93
2018-05-27T16:08:01.948Z,4.30
2018-05-27T16:10:29.507Z,3.67
2018-05-27T16:12:57.193Z,4.00
2018-05-27T16:15:25.531Z,4.37
2018-05-27T16:17:53.097Z,3.93
2018-05-27T16:20:20.657Z,3.80
2018-05-27T16:22:48.247Z,3.37
2018-05-27T16:25:16.628Z,4.10
2018-05-27T16:27:44.990Z,4.07
2018-05-27T16:30:12.616Z,4.30
2018-05-27T16:32:40.139Z,4.37
2018-05-27T16:35:07.972Z,4.10
2018-05-27T16:37:35.874Z,4.30
2018-05-27T16:40:03.476Z,4.03
2018-05-27T16:42:31.095Z,4.13
2018-05-27T16:44:58.686Z,4.27
2018-05-27T16:47:26.307Z,3.73
2018-05-27T16:49:54.663Z,4.53
2018-05-27T16:52:22.261Z,4.43
2018-05-27T16:54:49.851Z,4.70
2018-05-27T16:57:17.434Z,4.70
2018-05-27T16:59:45.336Z,4.80
2018-05-27T17:02:13.732Z,4.80
2018-05-27T17:04:42.100Z,5.17
2018-05-27T17:07:10.433Z,4.60
2018-05-27T17:09:38.006Z,5.23
2018-05-27T17:12:05.591Z,4.80
2018-05-27T17:14:33.131Z,5.03
2018-05-27T17:17:00.728Z,4.53
2018-05-27T17:19:28.424Z,4.80
2018-05-27T17:21:55.985Z,4.60
2018-05-27T17:24:23.591Z,5.13
2018-05-27T17:26:51.955Z,5.07
2018-05-27T17:29:19.604Z,4.97
2018-05-27T17:31:48.032Z,4.83
2018-05-27T17:34:15.595Z,4.50
2018-05-27T17:36:43.241Z,4.93
2018-05-27T17:39:10.819Z,4.73
2018-05-27T17:41:39.119Z,5.37
2018-05-27T17:44:06.659Z,4.47
2018-05-27T17:46:34.321Z,4.60
2018-05-27T17:49:02.436Z,4.50
2018-05-27T17:51:31.124Z,4.67
2018-05-27T17:53:58.739Z,4.80
2018-05-27T17:56:26.306Z,4.47
2018-05-27T17:58:53.923Z,4.77
2018-05-27T18:01:21.466Z,4.23
2018-05-27T18:03:49.024Z,4.60
2018-05-27T18:06:16.579Z,4.20
2018-05-27T18:08:44.924Z,4.20
2018-05-27T18:11:12.476Z,4.30
2018-05-27T18:13:40.048Z,5.27
2018-05-27T18:16:07.631Z,5.13
2018-05-27T18:18:35.205Z,4.63
2018-05-27T18:21:02.803Z,5.17
2018-05-27T18:23:30.382Z,4.83
2018-05-27T18:25:57.970Z,4.37
2018-05-27T18:28:25.553Z,4.20
2018-05-27T18:30:53.110Z,4.57
2018-05-27T18:33:20.647Z,4.50
2018-05-27T18:35:49.487Z,4.57
2018-05-27T18:38:17.084Z,4.37
2018-05-27T18:40:44.672Z,4.40
2018-05-27T18:43:12.260Z,4.20
2018-05-27T18:45:39.854Z,4.30
2018-05-27T18:48:07.547Z,4.73
2018-05-27T18:50:35.409Z,5.00
2018-05-27T18:53:02.975Z,4.77
2018-05-27T18:55:30.548Z,6.40
2018-05-27T18:57:58.123Z,4.40
2018-05-27T19:00:25.769Z,5.67
2018-05-27T19:02:53.373Z,5.87
2018-05-27T19:05:21.683Z,6.27
2018-05-27T19:07:49.262Z,6.27
2018-05-27T19:10:16.813Z,7.07
2018-05-27T19:12:44.394Z,7.03
2018-05-27T19:15:11.961Z,5.77
2018-05-27T19:17:39.546Z,6.50
2018-05-27T19:20:07.170Z,6.10
2018-05-27T19:22:34.809Z,6.40
2018-05-27T19:25:02.385Z,5.70
2018-05-27T19:27:29.996Z,6.40
2018-05-27T19:29:58.373Z,6.00
2018-05-27T19:32:25.932Z,6.67
2018-05-27T19:34:53.509Z,6.13
2018-05-27T19:37:21.090Z,6.20
2018-05-27T19:39:48.736Z,7.00
2018-05-27T19:42:16.322Z,6.73
2018-05-27T19:44:43.925Z,6.50
2018-05-27T19:47:12.256Z,7.10
2018-05-27T19:49:39.833Z,7.03
2018-05-27T19:52:07.492Z,7.60
2018-05-27T19:54:35.105Z,6.83
2018-05-27T19:57:02.763Z,7.27
2018-05-27T19:59:30.364Z,7.97
2018-05-27T20:01:57.918Z,8.37
2018-05-27T20:04:25.525Z,8.90
2018-05-27T20:06:53.109Z,8.23
2018-05-27T20:09:20.720Z,8.40
2018-05-27T20:11:48.280Z,8.23
2018-05-27T20:14:15.866Z,9.17
2018-05-27T20:16:43.401Z,8.10
2018-05-27T20:19:10.965Z,7.90
2018-05-27T20:21:38.541Z,7.63
2018-05-27T20:24:06.107Z,7.80
2018-05-27T20:26:33.710Z,6.97
2018-05-27T20:29:01.358Z,6.43
2018-05-27T20:31:28.950Z,7.10
2018-05-27T20:33:56.596Z,6.37
2018-05-27T20:36:24.143Z,6.17
2018-05-27T20:38:51.724Z,6.00
2018-05-27T20:41:19.279Z,6.47
2018-05-27T20:43:46.892Z,5.43
2018-05-27T20:46:14.466Z,5.83
2018-05-27T20:48:42.766Z,5.47
2018-05-27T20:51:10.442Z,5.60
2018-05-27T20:53:38.060Z,5.77
2018-05-27T20:56:06.527Z,5.87
2018-05-27T20:58:34.248Z,5.20
2018-05-27T21:01:01.836Z,5.40
2018-05-27T21:03:29.448Z,5.40
2018-05-27T21:05:56.994Z,6.20
2018-05-27T21:08:25.342Z,6.37
2018-05-27T21:10:52.973Z,6.67
2018-05-27T21:13:20.568Z,6.17
2018-05-27T21:15:48.135Z,6.37
2018-05-27T21:18:15.715Z,5.83
2018-05-27T21:20:44.094Z,6.43
2018-05-27T21:23:12.409Z,6.00
2018-05-27T21:25:39.980Z,6.03
2018-05-27T21:28:07.741Z,6.53
2018-05-27T21:30:35.343Z,5.70
2018-05-27T21:33:02.889Z,6.57
2018-05-27T21:35:30.449Z,5.93
2018-05-27T21:37:58.115Z,5.60
2018-05-27T21:40:26.453Z,5.80
2018-05-27T21:42:54.068Z,5.73
2018-05-27T21:45:22.391Z,5.80
2018-05-27T21:47:49.995Z,5.87
2018-05-27T21:50:17.554Z,5.30
2018-05-27T21:52:45.178Z,6.10
2018-05-27T21:55:12.746Z,6.70
2018-05-27T21:57:40.316Z,5.93
2018-05-27T22:00:07.848Z,6.63
2018-05-27T22:02:35.408Z,6.37
2018-05-27T22:05:02.970Z,6.20
2018-05-27T22:07:30.528Z,5.97
2018-05-27T22:09:58.100Z,6.27
2018-05-27T22:12:25.656Z,6.07
2018-05-27T22:14:53.205Z,5.90
2018-05-27T22:17:20.789Z,6.20
2018-05-27T22:19:48.341Z,5.77
2018-05-27T22:22:15.886Z,5.97
2018-05-27T22:24:43.491Z,5.73
2018-05-27T22:27:11.021Z,5.27
2018-05-27T22:29:38.567Z,5.33
2018-05-27T22:32:06.141Z,5.07
2018-05-27T22:34:33.688Z,5.50
2018-05-27T22:37:01.254Z,5.17
2018-05-27T22:39:28.822Z,5.67
2018-05-27T22:41:56.393Z,5.90
2018-05-27T22:44:23.986Z,7.00
2018-05-27T22:46:51.562Z,6.47
2018-05-27T22:49:19.867Z,7.17
2018-05-27T22:51:47.440Z,7.57
2018-05-27T22:54:16.164Z,5.93
2018-05-27T22:56:43.703Z,6.77
2018-05-27T22:59:11.303Z,5.53
2018-05-27T23:01:38.878Z,5.57
2018-05-27T23:04:06.453Z,6.27
2018-05-27T23:06:33.986Z,5.80
2018-05-27T23:09:01.544Z,5.80
2018-05-27T23:11:29.072Z,6.90
2018-05-27T23:13:56.649Z,6.17
2018-05-27T23:16:24.963Z,5.97
2018-05-27T23:18:52.541Z,5.50
2018-05-27T23:21:20.072Z,5.27
2018-05-27T23:23:47.634Z,5.33
2018-05-27T23:26:15.165Z,5.53
2018-05-27T23:28:43.505Z,5.33
2018-05-27T23:31:11.103Z,5.90
2018-05-27T23:33:38.710Z,5.23
2018-05-27T23:36:06.290Z,5.07
2018-05-27T23:38:33.882Z,5.50
2018-05-27T23:41:01.447Z,5.20
2018-05-27T23:43:29.776Z,5.67
2018-05-27T23:45:57.336Z,5.83
2018-05-27T23:48:24.901Z,6.73
2018-05-27T23:50:52.464Z,6.20
2018-05-27T23:53:20.641Z,7.03
2018-05-27T23:55:48.180Z,7.50
2018-05-27T23:58:15.752Z,7.23
